Terminal Aerodrome Forecast
Issued by NWS

Home | Current Version | Previous Version | Text Only | Print | Product List | Glossary On
Versions: 1 2 3 4 5 6 7 8 9 10 11 12 13 14 15 16 17 18 19 20 21
000
FTUS41 KBOX 181735
TAFBED
TAF
KBED 181735Z 1818/1918 19006KT P6SM OVC150
     FM182300 14005KT P6SM -RA OVC060
     FM190200 16006KT 5SM -RA BR OVC025
     FM190300 16006KT 3SM -RA BR OVC020
     FM190600 19010G22KT 5SM -RA BR OVC010 WS020/20040KT
     FM191600 22015G29KT P6SM -RA BKN040
     FM191700 26016G29KT P6SM FEW070=

USA.gov is the U.S. government's official web portal to all federal, state and local government web resources and services.